Time;durP1;ratioP1;P1;durP2;ratioP2;P2;SDS_P1;SDS_P2;PMS_P1;PMS_P2;Temp;Humidity;BMP_temperature;BMP_pressure;BME280_temperature;BME280_humidity;BME280_pressure;Samples;Min_cycle;Max_cycle;Signal;HPM_P1;HPM_P2
2023/06/12 00:02:17;;;;;;;7.30;4.73;;;19.60;79.70;;;;;;5151458;27;20215;-66
2023/06/12 00:04:44;;;;;;;7.17;4.77;;;19.60;79.10;;;;;;5151227;27;20503;-66
2023/06/12 00:07:13;;;;;;;7.10;4.43;;;19.60;78.60;;;;;;5151297;27;20417;-66
2023/06/12 00:09:39;;;;;;;6.53;5.07;;;19.60;79.40;;;;;;5132768;27;20429;-65
2023/06/12 00:12:05;;;;;;;4.33;4.03;;;19.50;80.00;;;;;;5151434;27;20429;-65
2023/06/12 00:14:31;;;;;;;6.50;4.87;;;19.50;80.30;;;;;;5151355;27;20424;-65
2023/06/12 00:16:57;;;;;;;4.80;4.40;;;19.50;81.40;;;;;;5151204;27;20789;-67
2023/06/12 00:19:22;;;;;;;8.23;4.97;;;19.50;80.10;;;;;;5151173;27;20204;-66
2023/06/12 00:21:48;;;;;;;5.30;4.50;;;19.50;80.50;;;;;;5151118;27;20273;-66
2023/06/12 00:24:14;;;;;;;5.87;4.70;;;19.50;81.80;;;;;;5132158;27;20783;-66
2023/06/12 00:26:39;;;;;;;11.77;5.40;;;19.40;82.60;;;;;;5150953;27;20598;-66
2023/06/12 00:29:05;;;;;;;6.07;4.20;;;19.30;83.10;;;;;;5132349;27;20288;-66
2023/06/12 00:31:30;;;;;;;5.23;4.73;;;19.40;83.30;;;;;;5150841;27;20260;-66
2023/06/12 00:33:56;;;;;;;7.63;4.37;;;19.40;83.60;;;;;;5150143;27;20209;-66
2023/06/12 00:36:22;;;;;;;4.67;4.23;;;19.40;84.20;;;;;;5150899;27;21059;-66
2023/06/12 00:38:48;;;;;;;4.53;4.13;;;19.40;84.20;;;;;;5132050;27;20212;-66
2023/06/12 00:41:14;;;;;;;8.00;4.70;;;19.40;84.50;;;;;;5150824;27;20804;-67
2023/06/12 00:43:39;;;;;;;7.77;5.27;;;19.30;85.20;;;;;;5131950;27;20559;-66
2023/06/12 00:46:06;;;;;;;5.40;4.90;;;19.30;84.30;;;;;;5150510;27;20183;-66
2023/06/12 00:48:32;;;;;;;7.30;4.63;;;19.20;85.50;;;;;;5150482;27;20671;-66
2023/06/12 00:50:58;;;;;;;5.50;4.67;;;19.20;85.30;;;;;;5150573;27;20444;-66
2023/06/12 00:53:24;;;;;;;5.80;4.93;;;19.10;85.80;;;;;;5131944;27;20424;-66
2023/06/12 00:55:50;;;;;;;5.97;4.70;;;19.20;88.20;;;;;;5150453;27;20800;-66
2023/06/12 00:58:16;;;;;;;5.40;4.93;;;19.00;88.50;;;;;;5150430;27;20272;-66
2023/06/12 01:00:43;;;;;;;5.77;5.27;;;19.00;90.10;;;;;;5150498;27;20659;-66
2023/06/12 01:03:12;;;;;;;7.90;4.70;;;19.00;90.40;;;;;;5150170;27;20566;-66
2023/06/12 01:05:42;;;;;;;8.40;5.33;;;19.00;90.70;;;;;;5131460;27;20968;-66
2023/06/12 01:08:19;;;;;;;5.60;5.00;;;18.90;91.20;;;;;;5150142;27;20470;-66
2023/06/12 01:10:50;;;;;;;5.43;4.93;;;18.80;92.10;;;;;;5150170;27;20423;-66
2023/06/12 01:13:18;;;;;;;8.50;4.70;;;18.90;92.40;;;;;;5150066;27;20428;-66
2023/06/12 01:15:43;;;;;;;5.70;5.20;;;18.80;92.70;;;;;;5149901;27;20929;-66
2023/06/12 01:18:09;;;;;;;5.97;5.37;;;18.70;93.40;;;;;;5149830;27;20437;-66
2023/06/12 01:20:35;;;;;;;4.90;4.50;;;18.70;93.80;;;;;;5150107;27;20215;-66
2023/06/12 01:23:13;;;;;;;6.10;5.00;;;18.80;93.10;;;;;;5149842;27;20576;-66
2023/06/12 01:25:53;;;;;;;7.50;4.80;;;18.70;93.60;;;;;;5149666;27;20887;-66
2023/06/12 01:28:40;;;;;;;5.53;5.03;;;18.70;93.90;;;;;;5150001;27;20808;-66
2023/06/12 01:31:20;;;;;;;5.90;4.97;;;18.80;94.10;;;;;;5149917;27;20867;-66
2023/06/12 01:34:07;;;;;;;7.93;5.67;;;18.70;94.50;;;;;;5131122;27;20412;-66
2023/06/12 01:36:37;;;;;;;5.17;4.33;;;18.70;94.50;;;;;;5149605;27;20462;-66
2023/06/12 01:39:05;;;;;;;6.00;5.40;;;18.70;95.00;;;;;;5149731;27;20428;-66
2023/06/12 01:41:32;;;;;;;5.87;4.90;;;18.70;95.30;;;;;;5131052;27;20444;-65
2023/06/12 01:44:06;;;;;;;6.23;4.70;;;18.70;96.00;;;;;;5149582;27;20473;-66
2023/06/12 01:46:32;;;;;;;5.63;5.00;;;18.80;95.70;;;;;;5154223;27;20424;-66
2023/06/12 01:48:57;;;;;;;7.00;5.10;;;18.80;96.50;;;;;;5134891;27;20828;-65
2023/06/12 01:51:23;;;;;;;6.37;5.53;;;18.80;95.50;;;;;;5153772;27;20179;-66
2023/06/12 01:53:49;;;;;;;6.70;5.77;;;18.80;95.80;;;;;;5153745;27;20585;-65
2023/06/12 01:56:17;;;;;;;6.50;4.30;;;18.70;97.60;;;;;;5135105;27;20186;-65
2023/06/12 01:58:43;;;;;;;5.90;5.40;;;18.70;96.30;;;;;;5153632;27;20434;-65
2023/06/12 02:01:08;;;;;;;5.40;4.90;;;18.70;96.50;;;;;;5153466;27;20473;-65
2023/06/12 02:03:36;;;;;;;7.53;5.57;;;18.80;96.10;;;;;;5134495;27;20262;-65
2023/06/12 02:06:02;;;;;;;6.47;5.50;;;18.70;96.00;;;;;;5134707;27;20188;-65
2023/06/12 02:08:28;;;;;;;5.47;4.97;;;18.70;96.50;;;;;;5153440;27;20970;-65
2023/06/12 02:10:54;;;;;;;6.50;5.63;;;18.70;95.90;;;;;;5153364;27;20415;-66
2023/06/12 02:13:19;;;;;;;6.20;5.53;;;18.70;95.90;;;;;;5134716;27;20279;-66
2023/06/12 02:15:46;;;;;;;8.80;5.17;;;18.70;96.20;;;;;;5153602;27;20579;-66
2023/06/12 02:18:11;;;;;;;7.20;5.50;;;18.70;95.50;;;;;;5153491;27;20696;-66
2023/06/12 02:20:37;;;;;;;5.90;5.17;;;18.70;95.50;;;;;;5153192;27;20464;-66
2023/06/12 02:23:03;;;;;;;6.60;5.63;;;18.70;96.00;;;;;;5153342;27;20215;-67
2023/06/12 02:25:28;;;;;;;6.67;5.53;;;18.70;96.20;;;;;;5153586;27;20184;-66
2023/06/12 02:27:54;;;;;;;7.37;6.20;;;18.70;95.60;;;;;;5153241;27;20219;-66
2023/06/12 02:30:20;;;;;;;5.93;5.43;;;18.70;96.30;;;;;;5134611;27;20177;-65
2023/06/12 02:32:47;;;;;;;5.80;5.27;;;18.70;97.30;;;;;;5153185;27;20240;-66
2023/06/12 02:35:12;;;;;;;6.47;5.40;;;18.70;96.10;;;;;;5152914;27;20187;-67
2023/06/12 02:37:38;;;;;;;6.00;5.20;;;18.70;95.90;;;;;;5152949;27;21019;-66
2023/06/12 02:40:04;;;;;;;6.30;5.33;;;18.70;96.40;;;;;;5153096;27;20184;-66
2023/06/12 02:42:30;;;;;;;6.13;5.53;;;18.70;96.10;;;;;;5152907;27;20255;-66
2023/06/12 02:44:55;;;;;;;9.63;5.70;;;18.60;96.10;;;;;;5153139;27;20753;-65
2023/06/12 02:47:21;;;;;;;8.27;5.60;;;18.60;96.90;;;;;;5134177;27;20187;-66
2023/06/12 02:49:47;;;;;;;6.60;5.80;;;18.60;96.80;;;;;;5152906;27;20187;-66
2023/06/12 02:52:12;;;;;;;6.13;5.53;;;18.60;97.60;;;;;;5152860;27;20237;-66
2023/06/12 02:54:38;;;;;;;5.43;4.93;;;18.60;97.20;;;;;;5152721;27;20674;-66
2023/06/12 02:57:04;;;;;;;7.30;5.50;;;18.50;97.40;;;;;;5152012;27;20230;-65
2023/06/12 02:59:30;;;;;;;8.80;6.33;;;18.50;97.70;;;;;;5152728;27;20237;-66
2023/06/12 03:01:55;;;;;;;5.97;5.33;;;18.50;98.20;;;;;;5152834;27;20422;-66
2023/06/12 03:04:23;;;;;;;7.40;5.97;;;18.50;98.90;;;;;;5152543;27;20413;-66
2023/06/12 03:06:52;;;;;;;7.20;5.70;;;18.50;98.20;;;;;;5152379;27;20227;-66
2023/06/12 03:09:18;;;;;;;5.80;5.30;;;18.50;98.40;;;;;;5152313;27;20449;-66
2023/06/12 03:11:44;;;;;;;6.83;5.40;;;18.40;98.40;;;;;;5152248;27;20413;-66
2023/06/12 03:14:12;;;;;;;6.40;5.10;;;18.40;98.90;;;;;;5133687;27;20424;-66
2023/06/12 03:16:38;;;;;;;5.87;5.37;;;18.40;99.40;;;;;;5152378;27;20561;-67
2023/06/12 03:19:04;;;;;;;8.57;6.07;;;18.40;99.10;;;;;;5152253;27;21235;-66
2023/06/12 03:21:30;;;;;;;6.93;5.27;;;18.40;99.20;;;;;;5152161;27;20499;-65
2023/06/12 03:23:56;;;;;;;7.43;6.53;;;18.40;99.50;;;;;;5152208;27;20235;-66
2023/06/12 03:26:22;;;;;;;6.57;5.97;;;18.40;99.90;;;;;;5133580;27;20205;-66
2023/06/12 03:28:48;;;;;;;7.30;6.03;;;18.40;99.90;;;;;;5152272;27;20433;-66
2023/06/12 03:31:14;;;;;;;10.03;5.70;;;18.40;99.90;;;;;;5152182;27;20410;-66
2023/06/12 03:33:40;;;;;;;11.80;5.83;;;18.40;99.90;;;;;;5151895;27;20495;-66
2023/06/12 03:36:06;;;;;;;6.20;5.60;;;18.40;99.70;;;;;;5152173;27;20437;-66
2023/06/12 03:38:32;;;;;;;5.70;5.10;;;18.30;99.70;;;;;;5151905;27;20794;-66
2023/06/12 03:40:57;;;;;;;10.43;5.57;;;18.30;99.60;;;;;;5152299;27;20199;-66
2023/06/12 03:43:23;;;;;;;11.33;5.73;;;18.30;98.90;;;;;;5152195;27;20218;-66
2023/06/12 03:45:48;;;;;;;9.93;6.50;;;18.30;98.50;;;;;;5152434;27;20182;-66
2023/06/12 03:48:14;;;;;;;7.77;6.10;;;18.30;99.00;;;;;;5152673;27;20199;-66
2023/06/12 03:50:40;;;;;;;13.00;5.90;;;18.30;99.10;;;;;;5152654;27;20178;-65
2023/06/12 03:53:05;;;;;;;7.20;6.00;;;18.30;99.90;;;;;;5152441;27;20676;-66
2023/06/12 03:55:32;;;;;;;5.33;4.83;;;18.40;99.90;;;;;;5133906;27;20246;-67
2023/06/12 03:57:57;;;;;;;6.93;6.33;;;18.30;99.90;;;;;;5152345;27;20219;-66
2023/06/12 04:00:23;;;;;;;8.37;5.70;;;18.30;99.90;;;;;;5152306;27;20425;-66
2023/06/12 04:02:49;;;;;;;7.13;5.10;;;18.30;99.90;;;;;;5151900;27;20575;-66
2023/06/12 04:05:14;;;;;;;6.40;5.27;;;18.30;99.90;;;;;;5151796;27;20181;-66
2023/06/12 04:07:40;;;;;;;8.10;5.30;;;18.30;99.90;;;;;;5132190;27;20205;-66
2023/06/12 04:10:08;;;;;;;11.27;6.60;;;18.30;99.90;;;;;;5150807;27;20181;-70
2023/06/12 04:12:34;;;;;;;13.23;5.77;;;18.30;99.90;;;;;;5132696;27;20229;-71
2023/06/12 04:15:02;;;;;;;6.13;5.53;;;18.30;99.90;;;;;;5151288;27;20411;-70
2023/06/12 04:17:28;;;;;;;7.63;5.70;;;18.40;99.90;;;;;;5150154;27;20204;-70
2023/06/12 04:19:55;;;;;;;7.63;5.70;;;18.40;99.90;;;;;;5131237;27;20871;-70
2023/06/12 04:22:22;;;;;;;5.90;5.30;;;18.30;99.90;;;;;;5149833;27;20689;-71
2023/06/12 04:24:49;;;;;;;6.37;5.77;;;18.40;99.90;;;;;;5131085;27;20429;-71
2023/06/12 04:27:16;;;;;;;6.90;6.20;;;18.50;99.90;;;;;;5149287;27;20524;-70
2023/06/12 04:29:42;;;;;;;5.90;5.30;;;18.60;99.90;;;;;;5149672;27;20410;-70
2023/06/12 04:32:08;;;;;;;8.57;5.57;;;18.60;99.90;;;;;;5149606;27;20430;-71
2023/06/12 04:34:39;;;;;;;8.70;5.77;;;18.60;99.90;;;;;;5149689;27;20836;-71
2023/06/12 04:37:13;;;;;;;10.30;5.60;;;18.60;99.90;;;;;;5131416;27;20506;-70
2023/06/12 04:39:40;;;;;;;7.20;5.90;;;18.50;99.90;;;;;;5132434;27;20500;-71
2023/06/12 04:42:08;;;;;;;6.80;5.37;;;18.60;99.90;;;;;;5149645;27;20411;-71
2023/06/12 04:44:34;;;;;;;6.83;6.20;;;18.50;99.90;;;;;;5149828;27;20453;-70
2023/06/12 04:47:10;;;;;;;6.13;5.53;;;18.50;99.90;;;;;;5150013;27;20501;-70
2023/06/12 04:49:40;;;;;;;6.20;5.60;;;18.50;99.90;;;;;;5149999;27;20452;-70
2023/06/12 04:52:07;;;;;;;10.40;5.67;;;18.60;99.90;;;;;;5131257;27;21228;-71
2023/06/12 04:54:35;;;;;;;11.00;5.80;;;18.80;99.90;;;;;;5113714;27;20427;-70
2023/06/12 04:57:16;;;;;;;6.90;5.93;;;18.80;99.90;;;;;;5149321;27;20413;-70
2023/06/12 04:59:44;;;;;;;6.80;6.10;;;18.80;99.90;;;;;;5132049;27;20633;-70
2023/06/12 05:02:10;;;;;;;6.57;5.30;;;18.80;99.90;;;;;;5148920;27;20505;-69
2023/06/12 05:04:37;;;;;;;9.00;5.57;;;18.80;99.90;;;;;;5149245;27;20454;-70
2023/06/12 05:07:13;;;;;;;13.00;7.20;;;18.90;99.90;;;;;;5148973;27;20434;-69
2023/06/12 05:09:39;;;;;;;7.33;5.70;;;19.00;99.90;;;;;;5149395;27;20390;-71
2023/06/12 05:12:06;;;;;;;9.93;6.40;;;18.90;99.90;;;;;;5130379;27;20452;-70
2023/06/12 05:14:34;;;;;;;10.13;6.03;;;19.10;99.90;;;;;;5148985;27;20422;-69
2023/06/12 05:17:00;;;;;;;12.50;6.07;;;19.20;99.90;;;;;;5149008;27;20418;-69
2023/06/12 05:19:26;;;;;;;8.00;6.23;;;19.30;99.90;;;;;;5148613;27;20434;-69
2023/06/12 05:21:52;;;;;;;8.97;5.73;;;19.40;99.90;;;;;;5149223;27;20460;-71
2023/06/12 05:24:18;;;;;;;6.30;5.70;;;19.40;99.90;;;;;;5149046;27;20425;-71
2023/06/12 05:26:43;;;;;;;8.00;6.40;;;19.40;99.90;;;;;;5148946;27;20280;-71
2023/06/12 05:29:09;;;;;;;9.00;5.80;;;19.60;99.90;;;;;;5130274;27;20235;-71
2023/06/12 05:31:34;;;;;;;11.20;6.53;;;19.50;99.90;;;;;;5148772;27;20286;-72
2023/06/12 05:34:00;;;;;;;8.80;6.07;;;19.60;99.90;;;;;;5130530;27;20191;-69
2023/06/12 05:36:26;;;;;;;8.50;6.07;;;19.70;99.90;;;;;;5129972;27;20229;-69
2023/06/12 05:38:52;;;;;;;9.30;5.87;;;19.80;99.90;;;;;;5129895;27;20689;-70
2023/06/12 05:41:17;;;;;;;6.17;5.57;;;19.90;99.90;;;;;;5148743;27;20418;-70
2023/06/12 05:43:45;;;;;;;5.70;5.20;;;19.90;99.90;;;;;;5148492;27;20211;-69
2023/06/12 05:46:11;;;;;;;9.60;5.77;;;20.00;99.90;;;;;;5148549;27;20752;-71
2023/06/12 05:48:37;;;;;;;7.33;5.70;;;20.10;99.90;;;;;;5148532;27;20440;-69
2023/06/12 05:51:05;;;;;;;6.50;5.90;;;20.30;99.90;;;;;;5148662;27;20421;-70
2023/06/12 05:53:32;;;;;;;10.37;6.37;;;20.30;99.90;;;;;;5148596;27;20180;-70
2023/06/12 05:55:57;;;;;;;6.83;5.80;;;20.40;99.90;;;;;;5148448;27;21017;-69
2023/06/12 05:58:23;;;;;;;9.30;5.40;;;20.50;99.90;;;;;;5129545;27;20540;-70
2023/06/12 06:00:49;;;;;;;6.20;5.60;;;20.70;99.90;;;;;;5129667;27;20207;-70
2023/06/12 06:03:16;;;;;;;6.07;5.40;;;20.70;99.90;;;;;;5148403;27;20212;-70
2023/06/12 06:05:42;;;;;;;6.83;5.53;;;20.80;99.90;;;;;;5148534;27;20420;-69
2023/06/12 06:08:08;;;;;;;8.27;5.30;;;21.10;99.90;;;;;;5148235;27;20440;-69
2023/06/12 06:10:33;;;;;;;5.93;5.37;;;21.30;99.40;;;;;;5148325;27;20179;-71
2023/06/12 06:12:59;;;;;;;8.90;5.60;;;21.40;98.40;;;;;;5148514;27;20917;-70
2023/06/12 06:15:24;;;;;;;7.33;5.90;;;21.50;98.20;;;;;;5148290;27;20231;-71
2023/06/12 06:17:50;;;;;;;11.00;5.73;;;21.60;98.00;;;;;;5148504;27;21077;-71
2023/06/12 06:20:17;;;;;;;11.70;6.30;;;21.80;97.80;;;;;;5148382;27;20558;-71
2023/06/12 06:22:43;;;;;;;13.57;6.13;;;21.70;97.30;;;;;;5148589;27;20208;-70
2023/06/12 06:25:13;;;;;;;8.90;5.23;;;21.80;97.70;;;;;;5148563;27;20526;-71
2023/06/12 06:27:39;;;;;;;8.77;5.63;;;21.90;97.40;;;;;;5148426;27;20224;-72
2023/06/12 06:30:05;;;;;;;8.20;5.80;;;22.00;97.20;;;;;;5148821;27;20409;-71
2023/06/12 06:32:31;;;;;;;10.23;6.13;;;22.00;97.40;;;;;;5150882;27;20189;-71
2023/06/12 06:34:56;;;;;;;8.40;5.80;;;22.00;97.70;;;;;;5152945;27;20436;-71
2023/06/12 06:37:22;;;;;;;9.40;5.83;;;21.90;97.00;;;;;;5152566;27;20256;-71
2023/06/12 06:39:47;;;;;;;7.57;6.37;;;21.80;97.40;;;;;;5133811;27;20193;-71
2023/06/12 06:42:13;;;;;;;6.10;5.43;;;21.70;96.70;;;;;;5152502;27;20288;-71
2023/06/12 06:44:39;;;;;;;9.70;6.20;;;21.80;97.50;;;;;;5152543;27;20256;-71
2023/06/12 06:47:04;;;;;;;8.30;5.90;;;22.00;99.00;;;;;;5152377;27;20263;-72
2023/06/12 06:49:30;;;;;;;9.00;6.17;;;22.10;97.20;;;;;;5152427;27;20693;-71
2023/06/12 06:51:56;;;;;;;13.77;5.30;;;22.10;95.80;;;;;;5116532;27;20763;-71
2023/06/12 06:54:22;;;;;;;12.23;6.27;;;22.10;95.80;;;;;;5152547;27;20693;-71
2023/06/12 06:56:48;;;;;;;7.33;5.83;;;22.20;95.80;;;;;;5152529;27;20611;-70
2023/06/12 06:59:15;;;;;;;5.70;5.20;;;22.00;95.40;;;;;;5152495;27;20230;-70
2023/06/12 07:01:41;;;;;;;6.80;6.10;;;22.10;96.20;;;;;;5152448;27;20463;-70
2023/06/12 07:04:06;;;;;;;8.57;5.83;;;22.30;95.90;;;;;;5152350;27;20504;-70
2023/06/12 07:06:33;;;;;;;7.60;6.00;;;22.50;96.50;;;;;;5116415;27;20422;-71
2023/06/12 07:09:02;;;;;;;8.20;5.90;;;22.40;96.00;;;;;;5151760;27;20197;-70
2023/06/12 07:11:28;;;;;;;14.20;5.37;;;22.20;95.60;;;;;;5151791;27;20426;-70
2023/06/12 07:13:53;;;;;;;6.83;5.03;;;22.50;95.60;;;;;;5151540;27;20422;-70
2023/06/12 07:16:20;;;;;;;8.73;5.43;;;22.60;95.10;;;;;;5151416;27;20756;-71
2023/06/12 07:18:45;;;;;;;6.20;5.60;;;22.60;95.00;;;;;;5151497;27;20217;-71
2023/06/12 07:21:11;;;;;;;6.03;5.30;;;22.50;95.00;;;;;;5151720;27;20930;-70
2023/06/12 07:23:37;;;;;;;9.33;5.40;;;22.60;94.80;;;;;;5151637;27;20350;-71
2023/06/12 07:26:03;;;;;;;6.83;5.03;;;22.80;94.80;;;;;;5151047;27;20811;-70
2023/06/12 07:28:28;;;;;;;10.10;5.40;;;22.60;94.40;;;;;;5150949;27;20202;-69
2023/06/12 07:30:54;;;;;;;7.20;6.10;;;22.70;94.70;;;;;;5131993;27;20302;-70
2023/06/12 07:33:20;;;;;;;12.70;6.10;;;22.40;94.60;;;;;;5150904;27;20184;-70
2023/06/12 07:35:46;;;;;;;10.43;5.70;;;22.40;95.40;;;;;;5150600;27;20217;-71
2023/06/12 07:38:12;;;;;;;10.43;5.60;;;22.70;96.00;;;;;;5150643;27;20690;-71
2023/06/12 07:40:38;;;;;;;7.93;5.80;;;22.90;95.30;;;;;;5150482;27;20217;-71
2023/06/12 07:43:05;;;;;;;8.40;6.00;;;23.20;94.40;;;;;;5150098;27;20517;-71
2023/06/12 07:45:31;;;;;;;8.23;5.10;;;23.30;93.60;;;;;;5150674;27;20786;-70
2023/06/12 07:47:57;;;;;;;6.13;5.30;;;23.30;93.60;;;;;;5150579;27;20442;-71
2023/06/12 07:50:23;;;;;;;5.90;4.80;;;23.40;93.20;;;;;;5150394;27;20501;-70
2023/06/12 07:52:49;;;;;;;8.63;5.43;;;23.60;92.80;;;;;;5131688;27;20439;-70
2023/06/12 07:55:16;;;;;;;7.47;5.00;;;23.60;92.60;;;;;;5150360;27;20786;-72
2023/06/12 07:57:41;;;;;;;7.57;5.30;;;23.70;91.70;;;;;;5150257;27;20715;-71
2023/06/12 08:00:08;;;;;;;5.50;4.50;;;23.60;91.40;;;;;;5131450;27;20431;-71
2023/06/12 08:02:35;;;;;;;10.43;4.50;;;23.70;91.20;;;;;;5150174;27;20209;-71
2023/06/12 08:05:01;;;;;;;7.63;5.93;;;23.80;90.70;;;;;;5131776;27;20527;-71
2023/06/12 08:07:27;;;;;;;8.77;5.10;;;23.80;90.30;;;;;;5150585;27;21157;-71
2023/06/12 08:09:53;;;;;;;8.43;5.40;;;23.70;89.50;;;;;;5150566;27;20408;-71
2023/06/12 08:12:19;;;;;;;6.30;5.60;;;23.70;89.50;;;;;;5150601;27;20936;-72
2023/06/12 08:14:47;;;;;;;5.50;4.80;;;23.50;89.60;;;;;;5150624;27;20221;-70
2023/06/12 08:17:13;;;;;;;6.83;4.80;;;23.60;90.10;;;;;;5150468;27;20794;-71
2023/06/12 08:19:40;;;;;;;6.50;5.03;;;23.70;89.10;;;;;;5150755;27;20432;-71
2023/06/12 08:22:07;;;;;;;8.83;5.60;;;23.90;88.80;;;;;;5150591;27;20431;-71
2023/06/12 08:24:35;;;;;;;7.50;5.07;;;23.90;88.20;;;;;;5132145;27;20423;-71
2023/06/12 08:27:02;;;;;;;6.53;4.73;;;24.00;87.90;;;;;;5131989;27;20490;-71
2023/06/12 08:29:28;;;;;;;5.20;4.80;;;24.30;85.70;;;;;;5150159;27;20443;-71
2023/06/12 08:31:54;;;;;;;5.10;4.70;;;24.40;85.70;;;;;;5150280;27;20929;-71
2023/06/12 08:34:24;;;;;;;10.77;4.83;;;24.50;87.90;;;;;;5150231;27;20747;-71
2023/06/12 08:36:52;;;;;;;5.73;5.00;;;24.80;85.30;;;;;;5131819;27;21011;-71
2023/06/12 08:39:18;;;;;;;9.30;4.90;;;24.70;82.90;;;;;;5149719;27;20497;-70
2023/06/12 08:42:07;;;;;;;7.50;5.13;;;24.90;79.30;;;;;;5150220;27;20408;-71
2023/06/12 08:44:33;;;;;;;6.00;4.67;;;25.10;79.80;;;;;;5150099;27;20277;-73
2023/06/12 08:47:01;;;;;;;5.43;4.57;;;25.30;78.70;;;;;;5131406;27;20413;-71
2023/06/12 08:49:27;;;;;;;5.40;4.90;;;25.30;77.60;;;;;;5131817;27;20428;-72
2023/06/12 08:51:56;;;;;;;5.83;4.23;;;25.40;79.60;;;;;;5150029;27;20412;-71
2023/06/12 08:54:22;;;;;;;5.67;4.70;;;25.70;79.60;;;;;;5149515;27;20780;-72
2023/06/12 08:56:48;;;;;;;6.77;4.60;;;25.90;79.50;;;;;;5150115;27;20416;-71
2023/06/12 08:59:15;;;;;;;6.70;4.43;;;26.20;79.40;;;;;;5131360;27;20857;-72
2023/06/12 09:01:41;;;;;;;16.80;5.10;;;26.40;78.30;;;;;;5131047;27;20503;-71
2023/06/12 09:04:33;;;;;;;12.17;5.27;;;26.30;76.90;;;;;;5149454;27;20457;-72
2023/06/12 09:07:01;;;;;;;10.53;5.10;;;26.40;75.20;;;;;;5130815;27;20422;-72
2023/06/12 09:09:53;;;;;;;5.37;4.90;;;25.90;75.40;;;;;;5149341;27;20437;-72
2023/06/12 09:12:19;;;;;;;10.20;5.00;;;25.80;76.50;;;;;;5144443;27;20877;-73
2023/06/12 09:14:48;;;;;;;6.77;4.67;;;25.80;78.10;;;;;;5149678;27;20497;-73
2023/06/12 09:17:13;;;;;;;14.23;5.13;;;25.80;76.90;;;;;;5149608;27;20303;-72
2023/06/12 09:19:48;;;;;;;5.33;4.70;;;25.80;76.80;;;;;;5148856;27;20459;-72
2023/06/12 09:22:14;;;;;;;5.70;5.10;;;26.30;76.60;;;;;;5149377;27;20180;-74
2023/06/12 09:24:40;;;;;;;7.00;4.77;;;26.50;75.40;;;;;;5131062;27;20777;-71
2023/06/12 09:27:07;;;;;;;5.27;4.87;;;26.90;77.70;;;;;;5130968;27;20741;-72
2023/06/12 09:29:35;;;;;;;5.90;4.73;;;27.00;74.80;;;;;;5130647;27;20512;-71
2023/06/12 09:32:02;;;;;;;5.73;5.17;;;27.10;75.00;;;;;;5148879;27;20471;-73
2023/06/12 09:34:30;;;;;;;6.20;4.27;;;27.00;72.80;;;;;;5129833;27;20449;-73
2023/06/12 09:36:55;;;;;;;5.13;4.73;;;27.10;72.90;;;;;;5148948;27;20425;-72
2023/06/12 09:39:26;;;;;;;5.27;4.60;;;27.30;74.60;;;;;;5130167;27;20806;-73
2023/06/12 09:41:52;;;;;;;6.77;5.00;;;27.50;73.80;;;;;;5148825;27;20225;-73
2023/06/12 09:44:25;;;;;;;5.27;4.87;;;27.40;72.70;;;;;;5148614;27;20984;-73
2023/06/12 09:46:52;;;;;;;4.93;4.50;;;28.00;74.80;;;;;;5148839;27;20422;-73
2023/06/12 09:49:24;;;;;;;9.80;4.83;;;28.10;71.20;;;;;;5129778;27;21037;-72
2023/06/12 09:51:51;;;;;;;5.53;4.67;;;28.10;70.50;;;;;;5130369;27;20462;-72
2023/06/12 09:54:18;;;;;;;5.00;4.60;;;27.80;70.50;;;;;;5129959;27;20418;-72
2023/06/12 09:56:48;;;;;;;5.60;4.60;;;27.90;71.90;;;;;;5148605;27;20783;-72
2023/06/12 09:59:18;;;;;;;6.20;5.30;;;27.80;71.70;;;;;;5148325;27;20558;-72
2023/06/12 10:02:08;;;;;;;8.80;4.37;;;27.90;71.60;;;;;;5148381;27;20413;-71
2023/06/12 10:04:38;;;;;;;7.80;5.63;;;27.90;71.80;;;;;;5148489;27;20410;-72
2023/06/12 10:07:22;;;;;;;7.57;5.10;;;27.70;71.60;;;;;;5150192;27;20830;-71
2023/06/12 10:09:48;;;;;;;7.43;5.03;;;27.70;72.30;;;;;;5133885;27;20496;-72
2023/06/12 10:12:16;;;;;;;7.73;4.70;;;27.50;69.60;;;;;;5152430;27;20410;-72
2023/06/12 10:14:42;;;;;;;7.77;5.40;;;27.70;70.50;;;;;;5152540;27;20421;-72
2023/06/12 10:17:10;;;;;;;4.90;4.40;;;28.10;68.50;;;;;;5152275;27;20993;-71
2023/06/12 10:19:40;;;;;;;5.23;4.83;;;28.40;66.90;;;;;;5152031;27;20429;-72
2023/06/12 10:22:06;;;;;;;5.57;3.97;;;28.20;63.90;;;;;;5134387;27;20809;-73
2023/06/12 10:24:33;;;;;;;7.67;4.33;;;28.60;65.80;;;;;;5133399;27;20418;-72
2023/06/12 10:27:00;;;;;;;5.63;4.40;;;28.60;62.60;;;;;;5151960;27;20441;-72
2023/06/12 10:29:32;;;;;;;5.77;5.20;;;28.90;64.20;;;;;;5152255;27;20437;-71
2023/06/12 10:32:06;;;;;;;6.93;4.17;;;29.10;63.40;;;;;;5133105;27;20796;-74
2023/06/12 10:34:36;;;;;;;4.90;4.40;;;29.20;62.90;;;;;;5151852;27;20449;-72
2023/06/12 10:37:24;;;;;;;5.33;4.30;;;29.30;64.40;;;;;;5151787;27;20410;-72
2023/06/12 10:40:12;;;;;;;5.03;4.53;;;29.50;64.00;;;;;;5151480;27;20405;-72
2023/06/12 10:42:53;;;;;;;8.63;4.77;;;29.30;64.30;;;;;;5151693;27;20468;-72
2023/06/12 10:45:19;;;;;;;5.40;4.90;;;29.70;65.60;;;;;;5151762;27;20410;-71
2023/06/12 10:48:03;;;;;;;8.53;5.07;;;29.90;66.00;;;;;;5151644;27;20446;-72
2023/06/12 10:50:31;;;;;;;5.40;3.80;;;29.90;64.30;;;;;;5151814;27;20182;-72
2023/06/12 10:52:59;;;;;;;4.93;4.43;;;30.10;64.10;;;;;;5151634;27;20417;-73
2023/06/12 10:55:32;;;;;;;5.60;5.03;;;29.80;61.40;;;;;;5151910;27;20421;-72
2023/06/12 10:58:00;;;;;;;5.97;4.80;;;29.80;66.40;;;;;;5132894;27;20582;-73
2023/06/12 11:00:31;;;;;;;5.47;4.70;;;29.70;63.30;;;;;;5151414;27;20423;-73
2023/06/12 11:03:00;;;;;;;6.43;4.60;;;29.40;60.30;;;;;;5151367;27;20451;-72
2023/06/12 11:05:27;;;;;;;5.23;4.30;;;29.40;60.80;;;;;;5132298;27;20469;-72
2023/06/12 11:08:11;;;;;;;7.33;4.70;;;29.30;59.90;;;;;;5151168;27;20441;-71
2023/06/12 11:10:38;;;;;;;6.17;4.83;;;28.90;58.70;;;;;;5151185;27;20485;-73
2023/06/12 11:13:04;;;;;;;6.60;4.50;;;29.00;59.80;;;;;;5151174;27;21023;-73
2023/06/12 11:15:33;;;;;;;5.23;4.40;;;28.90;60.80;;;;;;5115230;27;20452;-72
2023/06/12 11:17:59;;;;;;;5.70;4.47;;;28.80;59.80;;;;;;5131455;27;21362;-73
2023/06/12 11:20:24;;;;;;;12.70;5.20;;;28.50;59.50;;;;;;5151375;27;20409;-74
2023/06/12 11:23:00;;;;;;;5.50;4.57;;;28.50;60.00;;;;;;5151289;27;20291;-74
2023/06/12 11:25:26;;;;;;;5.20;4.70;;;28.50;60.00;;;;;;5132546;27;20176;-73
2023/06/12 11:27:54;;;;;;;6.40;4.30;;;28.60;61.00;;;;;;5151145;27;20455;-73
2023/06/12 11:30:20;;;;;;;7.07;4.00;;;28.80;60.50;;;;;;5132083;27;20182;-74
2023/06/12 11:32:45;;;;;;;4.80;4.40;;;28.60;60.00;;;;;;5150894;27;20421;-73
2023/06/12 11:35:11;;;;;;;7.60;4.93;;;28.60;61.10;;;;;;5131882;27;20850;-74
2023/06/12 11:37:40;;;;;;;6.10;4.60;;;28.60;61.60;;;;;;5151135;27;20647;-74
2023/06/12 11:40:12;;;;;;;4.30;3.90;;;28.60;60.70;;;;;;5131938;27;20423;-72
2023/06/12 11:42:43;;;;;;;9.23;5.47;;;28.50;61.70;;;;;;5150365;27;20453;-73
2023/06/12 11:45:11;;;;;;;5.30;4.80;;;28.30;59.80;;;;;;5150329;27;20922;-72
2023/06/12 11:47:41;;;;;;;4.80;4.40;;;28.00;60.40;;;;;;5150194;27;20435;-73
2023/06/12 11:50:27;;;;;;;8.80;4.70;;;28.20;61.00;;;;;;5150927;27;20743;-75
2023/06/12 11:52:54;;;;;;;5.50;4.80;;;28.10;61.10;;;;;;5150121;27;21006;-74
2023/06/12 11:55:21;;;;;;;7.97;4.43;;;28.10;60.70;;;;;;5150511;27;20418;-75
2023/06/12 11:57:48;;;;;;;5.50;3.87;;;28.10;60.00;;;;;;5150363;27;20445;-76
2023/06/12 12:00:20;;;;;;;5.37;4.30;;;28.10;58.30;;;;;;5131503;27;20425;-74
2023/06/12 12:02:51;;;;;;;5.63;4.60;;;28.10;59.60;;;;;;5150339;27;20528;-74
2023/06/12 12:05:22;;;;;;;5.47;4.93;;;28.00;59.40;;;;;;5150346;27;20410;-74
2023/06/12 12:07:59;;;;;;;9.20;4.90;;;28.00;59.10;;;;;;5149955;27;21337;-74
2023/06/12 12:10:27;;;;;;;5.00;4.50;;;27.70;59.40;;;;;;5149765;27;20420;-75
2023/06/12 12:13:01;;;;;;;8.13;5.50;;;27.60;60.70;;;;;;5131570;27;20566;-75
2023/06/12 12:15:47;;;;;;;7.80;4.57;;;27.80;60.50;;;;;;5113732;27;20441;-75
2023/06/12 12:18:13;;;;;;;5.20;4.70;;;27.90;60.00;;;;;;5149278;27;20991;-75
2023/06/12 12:20:40;;;;;;;5.13;4.73;;;28.00;59.90;;;;;;5131352;27;20785;-75
2023/06/12 12:23:10;;;;;;;6.50;4.30;;;28.30;60.70;;;;;;5131166;27;21269;-75
2023/06/12 12:25:36;;;;;;;10.63;4.60;;;28.40;58.90;;;;;;5132156;27;20437;-74
2023/06/12 12:28:03;;;;;;;7.10;4.70;;;28.30;59.70;;;;;;5149757;27;20461;-75
2023/06/12 12:30:30;;;;;;;5.10;4.60;;;28.50;59.10;;;;;;5148948;27;20200;-75
2023/06/12 12:32:59;;;;;;;7.53;4.43;;;28.50;58.00;;;;;;5131223;27;20537;-74
2023/06/12 12:35:26;;;;;;;6.67;4.27;;;28.40;58.30;;;;;;5150026;27;20872;-75
2023/06/12 12:37:53;;;;;;;4.87;4.13;;;28.50;57.30;;;;;;5149866;27;20442;-75
2023/06/12 12:40:19;;;;;;;4.33;4.03;;;28.60;56.50;;;;;;5131598;27;20424;-74
2023/06/12 12:42:47;;;;;;;6.93;4.60;;;28.40;55.90;;;;;;5131177;27;20476;-74
2023/06/12 12:45:15;;;;;;;5.10;4.70;;;28.30;56.10;;;;;;5149956;27;20410;-74
2023/06/12 12:47:41;;;;;;;6.57;4.63;;;28.20;57.00;;;;;;5150121;27;21121;-75
2023/06/12 12:50:07;;;;;;;5.70;4.20;;;28.00;56.30;;;;;;5130847;27;20424;-76